createdAt,value
2017-09-02T00:00:33.051Z,0
2017-09-02T00:01:33.695Z,0
2017-09-02T00:02:34.337Z,0
2017-09-02T00:03:34.949Z,0
2017-09-02T00:04:35.710Z,0
2017-09-02T00:05:36.321Z,0
2017-09-02T00:06:36.931Z,0
2017-09-02T00:07:37.578Z,0
2017-09-02T00:08:38.185Z,0
2017-09-02T00:09:38.952Z,0
2017-09-02T00:10:39.566Z,0
2017-09-02T00:11:40.174Z,0
2017-09-02T00:12:40.785Z,0
2017-09-02T00:13:41.431Z,0
2017-09-02T00:14:42.188Z,0
2017-09-02T00:15:42.799Z,0
2017-09-02T00:16:43.410Z,0
2017-09-02T00:17:44.021Z,0
2017-09-02T00:18:44.631Z,0
2017-09-02T00:19:45.391Z,0
2017-09-02T00:20:46.001Z,0
2017-09-02T00:21:46.618Z,0
2017-09-02T00:22:47.269Z,0
2017-09-02T00:23:47.870Z,0
2017-09-02T00:24:48.635Z,0
2017-09-02T00:25:49.246Z,0
2017-09-02T00:26:49.858Z,0
2017-09-02T00:27:50.468Z,0
2017-09-02T00:28:51.080Z,0
2017-09-02T00:29:51.872Z,0
2017-09-02T00:30:52.486Z,0
2017-09-02T00:31:53.094Z,0
2017-09-02T00:32:53.710Z,0
2017-09-02T00:33:54.317Z,0
2017-09-02T00:34:55.081Z,0
2017-09-02T00:35:55.723Z,0
2017-09-02T00:36:56.332Z,0
2017-09-02T00:37:56.943Z,0
2017-09-02T00:38:57.552Z,0
2017-09-02T00:39:58.314Z,0
2017-09-02T00:40:58.924Z,0
2017-09-02T00:41:59.572Z,0
2017-09-02T00:43:00.179Z,0
2017-09-02T00:44:00.788Z,0
2017-09-02T00:45:01.556Z,0
2017-09-02T00:46:02.168Z,0
2017-09-02T00:47:02.776Z,0
2017-09-02T00:48:03.386Z,0
2017-09-02T00:49:04.030Z,0
2017-09-02T00:50:04.827Z,0
2017-09-02T00:51:05.434Z,0
2017-09-02T00:52:06.046Z,0
2017-09-02T00:53:06.660Z,0
2017-09-02T00:54:07.268Z,0
2017-09-02T00:55:08.084Z,0
2017-09-02T00:56:08.693Z,0
2017-09-02T00:57:09.303Z,0
2017-09-02T00:58:09.915Z,0
2017-09-02T00:59:10.524Z,0
2017-09-02T01:00:11.290Z,0
2017-09-02T01:01:11.900Z,0
2017-09-02T01:02:12.509Z,0
2017-09-02T01:03:13.121Z,0
2017-09-02T01:04:13.768Z,0
2017-09-02T01:05:14.534Z,0
2017-09-02T01:06:15.137Z,0
2017-09-02T01:07:15.752Z,0
2017-09-02T01:08:16.366Z,0
2017-09-02T01:09:16.972Z,0
2017-09-02T01:10:17.765Z,0
2017-09-02T01:11:18.377Z,0
2017-09-02T01:12:18.986Z,0
2017-09-02T01:13:19.597Z,0
2017-09-02T01:14:20.208Z,0
2017-09-02T01:15:20.978Z,0
2017-09-02T01:16:21.580Z,0
2017-09-02T01:17:22.190Z,0
2017-09-02T01:18:22.800Z,0
2017-09-02T01:19:23.415Z,0
2017-09-02T01:20:24.178Z,0
2017-09-02T01:21:24.787Z,0
2017-09-02T01:22:25.397Z,0
2017-09-02T01:23:26.006Z,0
2017-09-02T01:24:26.622Z,0
2017-09-02T01:25:27.379Z,0
2017-09-02T01:26:27.996Z,0
2017-09-02T01:27:28.602Z,0
2017-09-02T01:28:29.212Z,0
2017-09-02T01:29:29.821Z,0
2017-09-02T01:30:30.589Z,0
2017-09-02T01:31:31.196Z,0
2017-09-02T01:32:31.809Z,0
2017-09-02T01:33:32.454Z,0
2017-09-02T01:34:33.095Z,0
2017-09-02T01:35:33.854Z,0
2017-09-02T01:36:34.471Z,0
2017-09-02T01:37:35.110Z,0
2017-09-02T01:38:35.726Z,0
2017-09-02T01:39:36.333Z,0
2017-09-02T01:40:37.099Z,0
2017-09-02T01:41:37.705Z,0
2017-09-02T01:42:38.316Z,0
2017-09-02T01:43:38.927Z,0
2017-09-02T01:44:39.543Z,0
2017-09-02T01:45:40.300Z,0
2017-09-02T01:46:40.912Z,0
2017-09-02T01:47:41.521Z,0
2017-09-02T01:48:42.132Z,0
2017-09-02T01:49:42.741Z,0
2017-09-02T01:50:43.503Z,0
2017-09-02T01:51:44.118Z,0
2017-09-02T01:52:44.724Z,0
2017-09-02T01:53:45.365Z,0
2017-09-02T01:54:45.976Z,0
2017-09-02T01:55:46.737Z,0
2017-09-02T01:56:47.353Z,0
2017-09-02T01:57:47.961Z,0
2017-09-02T01:58:48.577Z,0
2017-09-02T01:59:49.218Z,0
2017-09-02T02:00:49.984Z,0
2017-09-02T02:01:50.598Z,0
2017-09-02T02:02:51.209Z,0
2017-09-02T02:03:51.823Z,0
2017-09-02T02:04:52.431Z,0
2017-09-02T02:05:53.198Z,0
2017-09-02T02:06:53.805Z,0
2017-09-02T02:07:54.419Z,0
2017-09-02T02:08:55.057Z,0
2017-09-02T02:09:55.664Z,0
2017-09-02T02:10:56.424Z,0
2017-09-02T02:11:57.034Z,0
2017-09-02T02:12:57.644Z,0
2017-09-02T02:13:58.256Z,0
2017-09-02T02:14:58.870Z,0
2017-09-02T02:15:59.624Z,0
2017-09-02T02:17:00.234Z,0
2017-09-02T02:18:00.844Z,0
2017-09-02T02:19:01.460Z,0
2017-09-02T02:20:02.066Z,0
2017-09-02T02:21:02.833Z,0
2017-09-02T02:22:03.445Z,0
2017-09-02T02:23:04.051Z,0
2017-09-02T02:24:04.663Z,0
2017-09-02T02:25:05.273Z,0
2017-09-02T02:26:06.035Z,0
2017-09-02T02:27:06.644Z,0
2017-09-02T02:28:07.291Z,0
2017-09-02T02:29:07.926Z,0
2017-09-02T02:30:08.536Z,0
2017-09-02T02:31:09.302Z,0
2017-09-02T02:32:09.910Z,0
2017-09-02T02:33:10.520Z,0
2017-09-02T02:34:11.129Z,0
2017-09-02T02:35:11.742Z,0
2017-09-02T02:36:12.503Z,0
2017-09-02T02:37:13.112Z,0
2017-09-02T02:38:13.723Z,0
2017-09-02T02:39:14.332Z,0
2017-09-02T02:40:14.942Z,0
2017-09-02T02:41:15.739Z,0
2017-09-02T02:42:16.352Z,0
2017-09-02T02:43:16.964Z,0
2017-09-02T02:44:17.573Z,0
2017-09-02T02:45:18.181Z,0
2017-09-02T02:46:18.947Z,0
2017-09-02T02:47:19.561Z,0
2017-09-02T02:48:20.170Z,0
2017-09-02T02:49:20.779Z,0
2017-09-02T02:50:21.390Z,0
2017-09-02T02:51:22.151Z,0
2017-09-02T02:52:22.760Z,0
2017-09-02T02:53:23.369Z,0
2017-09-02T02:54:23.981Z,0
2017-09-02T02:55:24.627Z,0
2017-09-02T02:56:25.425Z,0
2017-09-02T02:57:26.036Z,0
2017-09-02T02:58:26.643Z,0
2017-09-02T02:59:27.253Z,0
2017-09-02T03:00:27.865Z,0
2017-09-02T03:01:28.622Z,0
2017-09-02T03:02:29.232Z,0
2017-09-02T03:03:29.841Z,0
2017-09-02T03:04:30.451Z,0
2017-09-02T03:05:31.060Z,0
2017-09-02T03:06:31.826Z,0
2017-09-02T03:07:32.439Z,0
2017-09-02T03:08:33.073Z,0
2017-09-02T03:09:33.660Z,0
2017-09-02T03:10:34.268Z,0
2017-09-02T03:11:35.033Z,0
2017-09-02T03:12:35.642Z,0
2017-09-02T03:13:36.254Z,0
2017-09-02T03:14:36.866Z,0
2017-09-02T03:15:37.482Z,0
2017-09-02T03:16:38.240Z,0
2017-09-02T03:17:38.856Z,0
2017-09-02T03:18:39.494Z,0
2017-09-02T03:19:40.105Z,0
2017-09-02T03:20:40.720Z,0
2017-09-02T03:21:41.477Z,0
2017-09-02T03:22:42.089Z,0
2017-09-02T03:23:42.700Z,0
2017-09-02T03:24:43.309Z,0
2017-09-02T03:25:43.919Z,0
2017-09-02T03:26:44.679Z,0
2017-09-02T03:27:45.291Z,0
2017-09-02T03:28:45.901Z,0
2017-09-02T03:29:46.511Z,0
2017-09-02T03:30:47.121Z,0
2017-09-02T03:31:47.885Z,0
2017-09-02T03:32:48.492Z,0
2017-09-02T03:33:49.105Z,0
2017-09-02T03:34:49.717Z,0
2017-09-02T03:35:50.355Z,0
2017-09-02T03:36:51.146Z,0
2017-09-02T03:37:51.761Z,0
2017-09-02T03:38:52.375Z,0
2017-09-02T03:39:52.982Z,0
2017-09-02T03:40:53.597Z,0
2017-09-02T03:41:54.389Z,0
2017-09-02T03:42:54.998Z,0
2017-09-02T03:43:55.616Z,0
2017-09-02T03:44:56.222Z,0
2017-09-02T03:45:56.836Z,0
2017-09-02T03:46:57.594Z,0
2017-09-02T03:47:58.205Z,0
2017-09-02T03:48:58.847Z,0
2017-09-02T03:49:59.457Z,0
2017-09-02T03:51:00.069Z,0
2017-09-02T03:52:00.826Z,0
2017-09-02T03:53:01.443Z,0
2017-09-02T03:54:02.050Z,0
2017-09-02T03:55:02.658Z,0
2017-09-02T03:56:03.267Z,0
2017-09-02T03:57:04.028Z,0
2017-09-02T03:58:04.639Z,0
2017-09-02T03:59:05.248Z,0
2017-09-02T04:00:05.858Z,0
2017-09-02T04:01:06.473Z,0
2017-09-02T04:02:07.241Z,0
2017-09-02T04:03:07.842Z,0
2017-09-02T04:04:08.484Z,0
2017-09-02T04:05:09.093Z,0
2017-09-02T04:06:09.702Z,0
2017-09-02T04:07:10.462Z,0
2017-09-02T04:08:11.074Z,0
2017-09-02T04:09:11.682Z,0
2017-09-02T04:10:12.291Z,0
2017-09-02T04:11:12.938Z,0
2017-09-02T04:12:13.695Z,0
2017-09-02T04:13:14.312Z,0
2017-09-02T04:14:14.921Z,0
2017-09-02T04:15:15.529Z,0
2017-09-02T04:16:16.139Z,0
2017-09-02T04:17:16.904Z,0
2017-09-02T04:18:17.518Z,0
2017-09-02T04:19:18.126Z,0
2017-09-02T04:20:18.736Z,0
2017-09-02T04:21:19.345Z,0
2017-09-02T04:22:20.103Z,0
2017-09-02T04:23:20.718Z,0
2017-09-02T04:24:21.327Z,0
2017-09-02T04:25:21.936Z,0
2017-09-02T04:26:22.545Z,0
2017-09-02T04:27:23.304Z,0
2017-09-02T04:28:23.913Z,0
2017-09-02T04:29:24.523Z,0
2017-09-02T04:30:25.139Z,0
2017-09-02T04:31:25.777Z,0
2017-09-02T04:32:26.536Z,0
2017-09-02T04:33:27.152Z,0
2017-09-02T04:34:27.759Z,0
2017-09-02T04:35:28.374Z,0
2017-09-02T04:36:28.985Z,0
2017-09-02T04:37:29.749Z,0
2017-09-02T04:38:30.359Z,0
2017-09-02T04:39:31.005Z,0
2017-09-02T04:40:31.611Z,0
2017-09-02T04:41:32.225Z,0
2017-09-02T04:42:33.022Z,0
2017-09-02T04:43:33.630Z,0
2017-09-02T04:44:34.242Z,0
2017-09-02T04:45:34.880Z,4
2017-09-02T04:46:35.496Z,4
2017-09-02T04:47:36.251Z,4
2017-09-02T04:48:36.861Z,0
2017-09-02T04:49:37.471Z,0
2017-09-02T04:50:38.081Z,0
2017-09-02T04:51:38.689Z,0
2017-09-02T04:52:39.448Z,4
2017-09-02T04:53:40.063Z,0
2017-09-02T04:54:40.672Z,0
2017-09-02T04:55:41.286Z,0
2017-09-02T04:56:41.892Z,0
2017-09-02T04:57:42.691Z,4
2017-09-02T04:58:43.296Z,4
2017-09-02T04:59:43.912Z,0
2017-09-02T05:00:44.522Z,0
2017-09-02T05:01:45.136Z,0
2017-09-02T05:02:46.076Z,4
2017-09-02T05:03:46.686Z,4
2017-09-02T05:04:47.296Z,4
2017-09-02T05:05:47.938Z,4
2017-09-02T05:06:48.581Z,4
2017-09-02T05:07:49.339Z,4
2017-09-02T05:08:49.949Z,0
2017-09-02T05:09:50.560Z,0
2017-09-02T05:10:51.169Z,4
2017-09-02T05:11:51.784Z,4
2017-09-02T05:12:52.547Z,4
2017-09-02T05:13:53.157Z,4
2017-09-02T05:14:53.764Z,4
2017-09-02T05:15:54.376Z,4
2017-09-02T05:16:54.987Z,4
2017-09-02T05:17:55.747Z,8
2017-09-02T05:18:56.356Z,8
2017-09-02T05:19:56.965Z,8
2017-09-02T05:20:57.576Z,8
2017-09-02T05:21:58.187Z,8
2017-09-02T05:22:58.952Z,8
2017-09-02T05:23:59.560Z,8
2017-09-02T05:25:00.177Z,8
2017-09-02T05:26:00.826Z,8
2017-09-02T05:27:01.433Z,8
2017-09-02T05:28:02.231Z,8
2017-09-02T05:29:02.844Z,8
2017-09-02T05:30:03.457Z,8
2017-09-02T05:31:04.062Z,8
2017-09-02T05:32:04.677Z,8
2017-09-02T05:33:05.438Z,12
2017-09-02T05:34:06.081Z,8
2017-09-02T05:35:06.694Z,12
2017-09-02T05:36:07.306Z,12
2017-09-02T05:37:07.917Z,12
2017-09-02T05:38:08.678Z,12
2017-09-02T05:39:09.289Z,12
2017-09-02T05:40:09.906Z,12
2017-09-02T05:41:10.514Z,12
2017-09-02T05:42:11.154Z,12
2017-09-02T05:43:11.954Z,12
2017-09-02T05:44:12.601Z,12
2017-09-02T05:45:13.210Z,20
2017-09-02T05:46:13.824Z,16
2017-09-02T05:47:14.433Z,20
2017-09-02T05:48:15.194Z,20
2017-09-02T05:49:15.806Z,20
2017-09-02T05:50:16.423Z,20
2017-09-02T05:51:17.037Z,24
2017-09-02T05:52:17.644Z,24
2017-09-02T05:53:18.405Z,24
2017-09-02T05:54:19.017Z,28
2017-09-02T05:55:19.629Z,24
2017-09-02T05:56:20.241Z,24
2017-09-02T05:57:20.852Z,28
2017-09-02T05:58:21.619Z,28
2017-09-02T05:59:22.228Z,28
2017-09-02T06:00:22.838Z,24
2017-09-02T06:01:23.456Z,20
2017-09-02T06:02:24.100Z,20
2017-09-02T06:03:24.970Z,20
2017-09-02T06:04:25.617Z,16
2017-09-02T06:05:26.226Z,20
2017-09-02T06:06:26.837Z,20
2017-09-02T06:07:27.447Z,24
2017-09-02T06:08:28.207Z,20
2017-09-02T06:09:28.818Z,20
2017-09-02T06:10:29.429Z,24
2017-09-02T06:11:30.070Z,20
2017-09-02T06:12:30.681Z,20
2017-09-02T06:13:31.441Z,20
2017-09-02T06:14:32.086Z,20
2017-09-02T06:15:32.698Z,24
2017-09-02T06:16:33.347Z,24
2017-09-02T06:17:33.961Z,24
2017-09-02T06:18:34.753Z,28
2017-09-02T06:19:35.363Z,32
2017-09-02T06:20:35.980Z,32
2017-09-02T06:21:36.588Z,32
2017-09-02T06:22:37.233Z,40
2017-09-02T06:23:37.993Z,40
2017-09-02T06:24:38.609Z,40
2017-09-02T06:25:39.258Z,40
2017-09-02T06:26:39.867Z,44
2017-09-02T06:27:40.512Z,44
2017-09-02T06:28:41.424Z,40
2017-09-02T06:29:42.033Z,40
2017-09-02T06:30:42.651Z,40
2017-09-02T06:31:43.264Z,40
2017-09-02T06:32:43.873Z,36
2017-09-02T06:33:44.670Z,36
2017-09-02T06:34:45.312Z,36
2017-09-02T06:35:45.923Z,36
2017-09-02T06:36:46.535Z,40
2017-09-02T06:37:47.151Z,44
2017-09-02T06:38:47.943Z,44
2017-09-02T06:39:48.554Z,48
2017-09-02T06:40:49.164Z,52
2017-09-02T06:41:49.776Z,56
2017-09-02T06:42:50.385Z,52
2017-09-02T06:43:51.152Z,56
2017-09-02T06:44:51.760Z,52
2017-09-02T06:45:52.373Z,48
2017-09-02T06:46:53.014Z,44
2017-09-02T06:47:53.630Z,40
2017-09-02T06:48:54.393Z,36
2017-09-02T06:49:55.008Z,36
2017-09-02T06:50:55.656Z,36
2017-09-02T06:51:56.269Z,32
2017-09-02T06:52:56.877Z,40
2017-09-02T06:53:57.639Z,40
2017-09-02T06:54:58.250Z,52
2017-09-02T06:55:58.860Z,60
2017-09-02T06:56:59.478Z,64
2017-09-02T06:58:00.086Z,72
2017-09-02T06:59:00.851Z,72
2017-09-02T07:00:01.460Z,76
2017-09-02T07:01:02.074Z,80
2017-09-02T07:02:02.687Z,80
2017-09-02T07:03:03.296Z,80
2017-09-02T07:04:04.061Z,72
2017-09-02T07:05:04.669Z,76
2017-09-02T07:06:05.280Z,68
2017-09-02T07:07:05.896Z,60
2017-09-02T07:08:06.503Z,56
2017-09-02T07:09:07.268Z,56
2017-09-02T07:10:07.882Z,56
2017-09-02T07:11:08.525Z,56
2017-09-02T07:12:09.134Z,52
2017-09-02T07:13:09.745Z,52
2017-09-02T07:14:10.506Z,52
2017-09-02T07:15:11.118Z,52
2017-09-02T07:16:11.734Z,52
2017-09-02T07:17:12.343Z,52
2017-09-02T07:18:12.955Z,52
2017-09-02T07:19:13.716Z,48
2017-09-02T07:20:14.358Z,48
2017-09-02T07:21:14.968Z,48
2017-09-02T07:22:15.583Z,44
2017-09-02T07:23:16.197Z,48
2017-09-02T07:24:16.954Z,48
2017-09-02T07:25:17.566Z,56
2017-09-02T07:26:18.180Z,60
2017-09-02T07:27:18.791Z,64
2017-09-02T07:28:19.400Z,64
2017-09-02T07:29:20.193Z,68
2017-09-02T07:30:20.809Z,72
2017-09-02T07:31:21.419Z,76
2017-09-02T07:32:22.031Z,80
2017-09-02T07:33:22.641Z,92
2017-09-02T07:34:23.434Z,96
2017-09-02T07:35:24.046Z,92
2017-09-02T07:36:24.657Z,92
2017-09-02T07:37:25.269Z,88
2017-09-02T07:38:25.880Z,88
2017-09-02T07:39:26.641Z,88
2017-09-02T07:40:27.256Z,96
2017-09-02T07:41:27.867Z,104
2017-09-02T07:42:28.486Z,104
2017-09-02T07:43:29.097Z,104
2017-09-02T07:44:29.860Z,100
2017-09-02T07:45:30.487Z,100
2017-09-02T07:46:31.086Z,96
2017-09-02T07:47:31.697Z,92
2017-09-02T07:48:32.309Z,92
2017-09-02T07:49:33.071Z,92
2017-09-02T07:50:33.687Z,92
2017-09-02T07:51:34.297Z,96
2017-09-02T07:52:34.908Z,96
2017-09-02T07:53:35.530Z,96
2017-09-02T07:54:36.284Z,96
2017-09-02T07:55:36.893Z,92
2017-09-02T07:56:37.504Z,88
2017-09-02T07:57:38.115Z,92
2017-09-02T07:58:38.738Z,100
2017-09-02T07:59:39.492Z,104
2017-09-02T08:00:40.136Z,108
2017-09-02T08:01:40.751Z,112
2017-09-02T08:02:41.363Z,120
2017-09-02T08:03:41.974Z,120
2017-09-02T08:04:42.745Z,124
2017-09-02T08:05:43.358Z,124
2017-09-02T08:06:43.972Z,124
2017-09-02T08:07:44.618Z,128
2017-09-02T08:08:45.230Z,132
2017-09-02T08:09:45.998Z,136
2017-09-02T08:10:46.611Z,140
2017-09-02T08:11:47.228Z,140
2017-09-02T08:12:47.836Z,144
2017-09-02T08:13:48.451Z,144
2017-09-02T08:14:49.216Z,152
2017-09-02T08:15:49.859Z,164
2017-09-02T08:16:50.472Z,168
2017-09-02T08:17:51.085Z,172
2017-09-02T08:18:51.697Z,180
2017-09-02T08:19:52.467Z,184
2017-09-02T08:20:53.111Z,192
2017-09-02T08:21:53.729Z,196
2017-09-02T08:22:54.341Z,204
2017-09-02T08:23:54.993Z,208
2017-09-02T08:24:55.752Z,224
2017-09-02T08:25:56.369Z,232
2017-09-02T08:26:56.981Z,240
2017-09-02T08:27:57.598Z,228
2017-09-02T08:28:58.208Z,228
2017-09-02T08:29:58.970Z,224
2017-09-02T08:30:59.586Z,216
2017-09-02T08:32:00.199Z,212
2017-09-02T08:33:00.812Z,204
2017-09-02T08:34:01.427Z,204
2017-09-02T08:35:02.191Z,200
2017-09-02T08:36:02.806Z,200
2017-09-02T08:37:03.420Z,196
2017-09-02T08:38:04.032Z,196
2017-09-02T08:39:04.647Z,196
2017-09-02T08:40:05.410Z,192
2017-09-02T08:41:06.024Z,192
2017-09-02T08:42:06.637Z,192
2017-09-02T08:43:07.250Z,192
2017-09-02T08:44:07.865Z,192
2017-09-02T08:45:08.634Z,200
2017-09-02T08:46:09.248Z,200
2017-09-02T08:47:09.865Z,208
2017-09-02T08:48:10.482Z,212
2017-09-02T08:49:11.092Z,208
2017-09-02T08:50:11.855Z,208
2017-09-02T08:51:12.481Z,208
2017-09-02T08:52:13.090Z,200
2017-09-02T08:53:13.706Z,196
2017-09-02T08:54:14.320Z,196
2017-09-02T08:55:15.088Z,196
2017-09-02T08:56:15.703Z,192
2017-09-02T08:57:16.316Z,188
2017-09-02T08:58:16.929Z,188
2017-09-02T08:59:17.542Z,184
2017-09-02T09:00:18.312Z,184
2017-09-02T09:01:18.923Z,180
2017-09-02T09:02:19.544Z,176
2017-09-02T09:03:20.153Z,172
2017-09-02T09:04:20.805Z,176
2017-09-02T09:05:21.566Z,180
2017-09-02T09:06:22.182Z,180
2017-09-02T09:07:22.794Z,184
2017-09-02T09:08:23.407Z,188
2017-09-02T09:09:24.021Z,192
2017-09-02T09:10:24.785Z,196
2017-09-02T09:11:25.398Z,196
2017-09-02T09:12:26.018Z,204
2017-09-02T09:13:26.664Z,204
2017-09-02T09:14:27.278Z,204
2017-09-02T09:15:28.045Z,204
2017-09-02T09:16:28.663Z,200
2017-09-02T09:17:29.273Z,200
2017-09-02T09:18:29.887Z,200
2017-09-02T09:19:30.506Z,208
2017-09-02T09:20:31.295Z,216
2017-09-02T09:21:31.907Z,224
2017-09-02T09:22:32.527Z,232
2017-09-02T09:23:33.137Z,236
2017-09-02T09:24:33.754Z,244
2017-09-02T09:25:34.515Z,252
2017-09-02T09:26:35.129Z,256
2017-09-02T09:27:35.740Z,264
2017-09-02T09:28:36.356Z,268
2017-09-02T09:29:36.968Z,276
2017-09-02T09:30:37.734Z,284
2017-09-02T09:31:38.348Z,284
2017-09-02T09:32:38.960Z,276
2017-09-02T09:33:39.578Z,264
2017-09-02T09:34:40.191Z,268
2017-09-02T09:35:40.955Z,276
2017-09-02T09:36:41.568Z,276
2017-09-02T09:37:42.182Z,280
2017-09-02T09:38:42.798Z,276
2017-09-02T09:39:43.445Z,280
2017-09-02T09:40:44.211Z,284
2017-09-02T09:41:44.824Z,292
2017-09-02T09:42:45.438Z,304
2017-09-02T09:43:46.052Z,308
2017-09-02T09:44:46.672Z,308
2017-09-02T09:45:47.433Z,316
2017-09-02T09:46:48.047Z,328
2017-09-02T09:47:48.660Z,332
2017-09-02T09:48:49.279Z,324
2017-09-02T09:49:49.891Z,316
2017-09-02T09:50:50.688Z,312
2017-09-02T09:51:51.307Z,304
2017-09-02T09:52:51.918Z,304
2017-09-02T09:53:52.535Z,312
2017-09-02T09:54:53.147Z,316
2017-09-02T09:55:53.913Z,316
2017-09-02T09:56:54.525Z,316
2017-09-02T09:57:55.140Z,304
2017-09-02T09:58:55.754Z,300
2017-09-02T09:59:56.367Z,296
2017-09-02T10:00:57.133Z,284
2017-09-02T10:01:57.746Z,288
2017-09-02T10:02:58.366Z,304
2017-09-02T10:03:58.983Z,328
2017-09-02T10:04:59.594Z,372
2017-09-02T10:06:00.359Z,500
2017-09-02T10:07:00.977Z,516
2017-09-02T10:08:01.590Z,696
2017-09-02T10:09:02.201Z,708
2017-09-02T10:10:02.815Z,440
2017-09-02T10:11:03.584Z,404
2017-09-02T10:12:04.199Z,388
2017-09-02T10:13:04.812Z,388
2017-09-02T10:14:05.431Z,428
2017-09-02T10:15:06.042Z,428
2017-09-02T10:16:06.805Z,456
2017-09-02T10:17:07.425Z,548
2017-09-02T10:18:08.037Z,500
2017-09-02T10:19:08.649Z,424
2017-09-02T10:20:09.263Z,468
2017-09-02T10:21:10.029Z,520
2017-09-02T10:22:10.679Z,432
2017-09-02T10:23:11.289Z,352
2017-09-02T10:24:11.941Z,324
2017-09-02T10:25:12.557Z,360
2017-09-02T10:26:13.317Z,400
2017-09-02T10:27:13.935Z,328
2017-09-02T10:28:14.548Z,296
2017-09-02T10:29:15.161Z,272
2017-09-02T10:30:15.779Z,256
2017-09-02T10:31:16.546Z,244
2017-09-02T10:32:17.158Z,236
2017-09-02T10:33:17.772Z,224
2017-09-02T10:34:18.389Z,200
2017-09-02T10:35:19.001Z,176
2017-09-02T10:36:19.767Z,160
2017-09-02T10:37:20.382Z,144
2017-09-02T10:38:21.002Z,144
2017-09-02T10:39:21.613Z,148
2017-09-02T10:40:22.263Z,160
2017-09-02T10:41:23.030Z,156
2017-09-02T10:42:23.641Z,160
2017-09-02T10:43:24.260Z,164
2017-09-02T10:44:24.873Z,168
2017-09-02T10:45:25.488Z,164
2017-09-02T10:46:26.252Z,164
2017-09-02T10:47:26.867Z,168
2017-09-02T10:48:27.482Z,172
2017-09-02T10:49:28.100Z,180
2017-09-02T10:50:28.718Z,188
2017-09-02T10:51:29.477Z,188
2017-09-02T10:52:30.093Z,180
2017-09-02T10:53:30.744Z,172
2017-09-02T10:54:31.385Z,156
2017-09-02T10:55:32.000Z,144
2017-09-02T10:56:32.764Z,136
2017-09-02T10:57:33.378Z,132
2017-09-02T10:58:34.023Z,132
2017-09-02T10:59:34.637Z,132
2017-09-02T11:00:35.250Z,132
2017-09-02T11:01:36.014Z,140
2017-09-02T11:02:36.634Z,140
2017-09-02T11:03:37.244Z,144
2017-09-02T11:04:37.859Z,148
2017-09-02T11:05:38.478Z,144
2017-09-02T11:06:39.242Z,140
2017-09-02T11:07:39.861Z,128
2017-09-02T11:08:40.475Z,120
2017-09-02T11:09:41.090Z,116
2017-09-02T11:10:41.703Z,108
2017-09-02T11:11:42.471Z,88
2017-09-02T11:12:43.085Z,80
2017-09-02T11:13:43.692Z,88
2017-09-02T11:14:44.306Z,84
2017-09-02T11:15:44.924Z,96
2017-09-02T11:16:45.685Z,112
2017-09-02T11:17:46.305Z,128
2017-09-02T11:18:46.918Z,144
2017-09-02T11:19:47.530Z,160
2017-09-02T11:20:48.143Z,176
2017-09-02T11:21:48.944Z,196
2017-09-02T11:22:49.557Z,220
2017-09-02T11:23:50.169Z,244
2017-09-02T11:24:50.814Z,260
2017-09-02T11:25:51.460Z,236
2017-09-02T11:26:52.227Z,224
2017-09-02T11:27:52.839Z,220
2017-09-02T11:28:53.450Z,228
2017-09-02T11:29:54.063Z,228
2017-09-02T11:30:54.674Z,232
2017-09-02T11:31:55.440Z,232
2017-09-02T11:32:56.059Z,220
2017-09-02T11:33:56.675Z,220
2017-09-02T11:34:57.284Z,220
2017-09-02T11:35:57.897Z,228
2017-09-02T11:36:58.661Z,232
2017-09-02T11:37:59.276Z,248
2017-09-02T11:38:59.886Z,260
2017-09-02T11:40:00.500Z,276
2017-09-02T11:41:01.146Z,280
2017-09-02T11:42:01.908Z,276
2017-09-02T11:43:02.522Z,264
2017-09-02T11:44:03.136Z,248
2017-09-02T11:45:03.748Z,228
2017-09-02T11:46:04.369Z,224
2017-09-02T11:47:05.129Z,220
2017-09-02T11:48:05.750Z,216
2017-09-02T11:49:06.367Z,208
2017-09-02T11:50:06.974Z,208
2017-09-02T11:51:07.618Z,200
2017-09-02T11:52:08.414Z,200
2017-09-02T11:53:09.028Z,204
2017-09-02T11:54:09.643Z,208
2017-09-02T11:55:10.258Z,216
2017-09-02T11:56:10.882Z,216
2017-09-02T11:57:11.667Z,216
2017-09-02T11:58:12.282Z,208
2017-09-02T11:59:12.894Z,200
2017-09-02T12:00:13.514Z,196
2017-09-02T12:01:14.124Z,204
2017-09-02T12:02:14.893Z,208
2017-09-02T12:03:15.501Z,216
2017-09-02T12:04:16.120Z,212
2017-09-02T12:05:16.731Z,200
2017-09-02T12:06:17.351Z,184
2017-09-02T12:07:18.112Z,180
2017-09-02T12:08:18.729Z,188
2017-09-02T12:09:19.341Z,188
2017-09-02T12:10:19.954Z,196
2017-09-02T12:11:20.568Z,196
2017-09-02T12:12:21.364Z,196
2017-09-02T12:13:22.011Z,196
2017-09-02T12:14:22.625Z,192
2017-09-02T12:15:23.238Z,188
2017-09-02T12:16:23.851Z,180
2017-09-02T12:17:24.616Z,168
2017-09-02T12:18:25.232Z,164
2017-09-02T12:19:25.849Z,152
2017-09-02T12:20:26.461Z,148
2017-09-02T12:21:27.074Z,144
2017-09-02T12:22:27.839Z,140
2017-09-02T12:23:28.455Z,140
2017-09-02T12:24:29.073Z,140
2017-09-02T12:25:29.686Z,148
2017-09-02T12:26:30.296Z,152
2017-09-02T12:27:31.061Z,160
2017-09-02T12:28:31.673Z,164
2017-09-02T12:29:32.286Z,172
2017-09-02T12:30:32.907Z,180
2017-09-02T12:31:33.522Z,180
2017-09-02T12:32:34.284Z,188
2017-09-02T12:33:34.897Z,192
2017-09-02T12:34:35.511Z,196
2017-09-02T12:35:36.124Z,192
2017-09-02T12:36:36.737Z,196
2017-09-02T12:37:37.500Z,200
2017-09-02T12:38:38.112Z,204
2017-09-02T12:39:38.725Z,208
2017-09-02T12:40:39.344Z,216
2017-09-02T12:41:39.961Z,216
2017-09-02T12:42:40.722Z,228
2017-09-02T12:43:41.341Z,232
2017-09-02T12:44:41.957Z,240
2017-09-02T12:45:42.593Z,252
2017-09-02T12:46:43.213Z,284
2017-09-02T12:47:43.978Z,296
2017-09-02T12:48:44.595Z,256
2017-09-02T12:49:45.239Z,244
2017-09-02T12:50:45.857Z,248
2017-09-02T12:51:46.468Z,280
2017-09-02T12:52:47.238Z,348
2017-09-02T12:53:47.848Z,348
2017-09-02T12:54:48.469Z,356
2017-09-02T12:55:49.085Z,364
2017-09-02T12:56:49.695Z,352
2017-09-02T12:57:50.464Z,336
2017-09-02T12:58:51.078Z,296
2017-09-02T12:59:51.689Z,284
2017-09-02T13:00:52.301Z,276
2017-09-02T13:01:52.916Z,276
2017-09-02T13:02:53.679Z,280
2017-09-02T13:03:54.295Z,280
2017-09-02T13:04:54.914Z,292
2017-09-02T13:05:55.526Z,316
2017-09-02T13:06:56.139Z,352
2017-09-02T13:07:56.903Z,372
2017-09-02T13:08:57.520Z,408
2017-09-02T13:09:58.136Z,468
2017-09-02T13:10:58.753Z,516
2017-09-02T13:11:59.399Z,496
2017-09-02T13:13:00.168Z,500
2017-09-02T13:14:00.782Z,740
2017-09-02T13:15:01.395Z,732
2017-09-02T13:16:02.009Z,756
2017-09-02T13:17:02.628Z,732
2017-09-02T13:18:03.388Z,720
2017-09-02T13:19:04.004Z,764
2017-09-02T13:20:04.621Z,728
2017-09-02T13:21:05.232Z,772
2017-09-02T13:22:05.857Z,784
2017-09-02T13:23:06.620Z,780
2017-09-02T13:24:07.233Z,544
2017-09-02T13:25:07.846Z,712
2017-09-02T13:26:08.467Z,608
2017-09-02T13:27:09.077Z,476
2017-09-02T13:28:09.991Z,488
2017-09-02T13:29:10.607Z,444
2017-09-02T13:30:11.221Z,396
2017-09-02T13:31:11.836Z,348
2017-09-02T13:32:12.449Z,344
2017-09-02T13:33:13.213Z,384
2017-09-02T13:34:13.836Z,460
2017-09-02T13:35:14.453Z,528
2017-09-02T13:36:15.066Z,464
2017-09-02T13:37:15.681Z,580
2017-09-02T13:38:16.445Z,524
2017-09-02T13:39:17.060Z,324
2017-09-02T13:40:17.709Z,260
2017-09-02T13:41:18.322Z,236
2017-09-02T13:42:18.943Z,228
2017-09-02T13:43:19.701Z,240
2017-09-02T13:44:20.315Z,264
2017-09-02T13:45:20.929Z,332
2017-09-02T13:46:21.549Z,372
2017-09-02T13:47:22.161Z,616
2017-09-02T13:48:22.926Z,704
2017-09-02T13:49:23.547Z,672
2017-09-02T13:50:24.160Z,684
2017-09-02T13:51:24.778Z,692
2017-09-02T13:52:25.396Z,704
2017-09-02T13:53:26.156Z,716
2017-09-02T13:54:26.773Z,640
2017-09-02T13:55:27.389Z,748
2017-09-02T13:56:28.005Z,644
2017-09-02T13:57:28.619Z,896
2017-09-02T13:58:29.383Z,900
2017-09-02T13:59:29.999Z,848
2017-09-02T14:00:30.613Z,824
2017-09-02T14:01:31.228Z,696
2017-09-02T14:02:31.847Z,532
2017-09-02T14:03:32.607Z,652
2017-09-02T14:04:33.224Z,632
2017-09-02T14:05:33.837Z,584
2017-09-02T14:06:34.453Z,676
2017-09-02T14:07:35.073Z,576
2017-09-02T14:08:35.835Z,688
2017-09-02T14:09:36.450Z,524
2017-09-02T14:10:37.071Z,664
2017-09-02T14:11:37.716Z,652
2017-09-02T14:12:38.331Z,440
2017-09-02T14:13:39.194Z,432
2017-09-02T14:14:39.808Z,512
2017-09-02T14:15:40.455Z,540
2017-09-02T14:16:41.068Z,540
2017-09-02T14:17:41.686Z,636
2017-09-02T14:18:42.455Z,532
2017-09-02T14:19:43.068Z,392
2017-09-02T14:20:43.689Z,424
2017-09-02T14:21:44.306Z,448
2017-09-02T14:22:44.917Z,676